createdAt,value
2016-12-03T00:00:36.719Z,99.99
2016-12-03T00:01:36.803Z,99.99
2016-12-03T00:02:36.890Z,99.99
2016-12-03T00:03:37.462Z,99.99
2016-12-03T00:04:36.831Z,99.99
2016-12-03T00:05:36.836Z,99.99
2016-12-03T00:06:36.902Z,99.99
2016-12-03T00:07:36.962Z,99.99
2016-12-03T00:08:36.924Z,99.99
2016-12-03T00:09:36.899Z,99.99
2016-12-03T00:10:36.966Z,99.99
2016-12-03T00:11:36.812Z,99.99
2016-12-03T00:12:36.994Z,99.99
2016-12-03T00:13:36.988Z,99.99
2016-12-03T00:14:36.954Z,99.99
2016-12-03T00:15:36.960Z,99.99
2016-12-03T00:16:36.901Z,99.99
2016-12-03T00:17:36.771Z,99.99
2016-12-03T00:18:36.752Z,99.99
2016-12-03T00:19:36.772Z,99.99
2016-12-03T00:20:36.861Z,99.99
2016-12-03T00:21:36.795Z,99.99
2016-12-03T00:22:36.752Z,99.99
2016-12-03T00:23:36.810Z,99.99
2016-12-03T00:24:36.821Z,99.99
2016-12-03T00:25:36.716Z,99.99
2016-12-03T00:26:36.858Z,99.99
2016-12-03T00:27:36.700Z,99.99
2016-12-03T00:28:37.502Z,99.99
2016-12-03T00:29:36.786Z,99.99
2016-12-03T00:30:36.719Z,99.99
2016-12-03T00:31:36.643Z,99.99
2016-12-03T00:32:36.792Z,99.99
2016-12-03T00:33:36.711Z,99.99
2016-12-03T00:34:36.796Z,99.99
2016-12-03T00:35:36.742Z,99.99
2016-12-03T00:36:36.858Z,99.99
2016-12-03T00:37:37.008Z,99.99
2016-12-03T00:38:36.841Z,99.99
2016-12-03T00:39:36.798Z,99.99
2016-12-03T00:40:36.799Z,99.99
2016-12-03T00:45:06.302Z,99.99
2016-12-03T00:46:06.194Z,99.99
2016-12-03T00:47:06.125Z,99.99
2016-12-03T00:48:06.213Z,99.99
2016-12-03T00:49:06.276Z,99.99
2016-12-03T00:50:06.231Z,99.99
2016-12-03T00:51:06.195Z,99.99
2016-12-03T00:52:06.191Z,99.99
2016-12-03T00:53:06.365Z,99.99
2016-12-03T00:54:06.231Z,99.99
2016-12-03T00:55:06.298Z,99.99
2016-12-03T00:56:06.142Z,99.99
2016-12-03T00:57:06.296Z,99.99
2016-12-03T00:58:06.225Z,99.99
2016-12-03T00:59:06.230Z,99.99
2016-12-03T01:00:06.251Z,99.99
2016-12-03T01:01:06.232Z,99.99
2016-12-03T01:02:06.596Z,99.99
2016-12-03T01:03:06.219Z,99.99
2016-12-03T01:04:06.258Z,99.99
2016-12-03T01:05:06.489Z,99.99
2016-12-03T01:06:06.311Z,99.99
2016-12-03T01:07:06.243Z,99.99
2016-12-03T01:08:06.265Z,99.99
2016-12-03T01:09:06.225Z,99.99
2016-12-03T01:10:06.255Z,99.99
2016-12-03T01:11:06.193Z,99.99
2016-12-03T01:12:06.143Z,99.99
2016-12-03T01:13:06.359Z,99.99
2016-12-03T01:14:06.250Z,99.99
2016-12-03T01:15:06.307Z,99.99
2016-12-03T01:16:06.273Z,99.99
2016-12-03T01:17:06.234Z,99.99
2016-12-03T01:18:06.173Z,99.99
2016-12-03T01:19:06.250Z,99.99
2016-12-03T01:20:06.246Z,99.99
2016-12-03T01:21:06.284Z,99.99
2016-12-03T01:22:06.305Z,99.99
2016-12-03T01:23:06.374Z,99.99
2016-12-03T01:24:06.258Z,99.99
2016-12-03T01:25:06.245Z,99.99
2016-12-03T01:26:06.183Z,99.99
2016-12-03T01:27:06.209Z,99.99
2016-12-03T01:28:06.240Z,99.99
2016-12-03T01:29:06.313Z,99.99
2016-12-03T01:30:06.455Z,99.99
2016-12-03T01:31:06.711Z,99.99
2016-12-03T01:32:06.405Z,99.99
2016-12-03T01:33:06.699Z,99.99
2016-12-03T01:34:06.503Z,99.99
2016-12-03T01:35:06.665Z,99.99
2016-12-03T01:36:06.435Z,99.99
2016-12-03T01:37:06.655Z,99.99
2016-12-03T01:38:06.371Z,99.99
2016-12-03T01:39:06.757Z,99.99
2016-12-03T01:40:06.440Z,99.99
2016-12-03T01:41:06.344Z,99.99
2016-12-03T01:42:06.201Z,99.99
2016-12-03T01:43:06.278Z,99.99
2016-12-03T01:44:06.168Z,99.99
2016-12-03T01:45:06.429Z,99.99
2016-12-03T01:46:06.788Z,99.99
2016-12-03T01:47:06.320Z,99.99
2016-12-03T01:48:06.291Z,99.99
2016-12-03T01:49:06.244Z,99.99
2016-12-03T01:50:06.343Z,99.99
2016-12-03T01:51:06.268Z,99.99
2016-12-03T01:52:06.209Z,99.99
2016-12-03T01:53:06.295Z,99.99
2016-12-03T01:54:06.321Z,99.99
2016-12-03T01:55:06.464Z,99.99
2016-12-03T01:56:06.274Z,99.99
2016-12-03T01:57:06.365Z,99.99
2016-12-03T01:58:06.231Z,99.99
2016-12-03T01:59:06.340Z,99.99
2016-12-03T02:00:06.231Z,99.99
2016-12-03T02:01:06.253Z,99.99
2016-12-03T02:02:06.250Z,99.99
2016-12-03T02:03:06.339Z,99.99
2016-12-03T02:04:06.274Z,99.99
2016-12-03T02:05:06.319Z,99.99
2016-12-03T02:06:06.215Z,99.99
2016-12-03T02:07:06.379Z,99.99
2016-12-03T02:08:06.211Z,99.99
2016-12-03T02:09:06.285Z,99.99
2016-12-03T02:10:06.313Z,99.99
2016-12-03T02:11:06.337Z,99.99
2016-12-03T02:12:06.261Z,99.99
2016-12-03T02:13:06.277Z,99.99
2016-12-03T02:14:06.258Z,99.99
2016-12-03T02:15:06.352Z,99.99
2016-12-03T02:16:06.260Z,99.99
2016-12-03T02:17:06.315Z,99.99
2016-12-03T02:18:06.321Z,99.99
2016-12-03T02:19:06.380Z,99.99
2016-12-03T02:20:06.342Z,99.99
2016-12-03T02:21:06.221Z,99.99
2016-12-03T02:22:06.256Z,99.99
2016-12-03T02:23:06.334Z,99.99
2016-12-03T02:24:06.300Z,99.99
2016-12-03T02:25:06.326Z,99.99
2016-12-03T02:26:06.261Z,99.99
2016-12-03T02:27:16.213Z,99.99
2016-12-03T02:28:06.300Z,99.99
2016-12-03T02:29:06.431Z,99.99
2016-12-03T02:30:06.318Z,99.99
2016-12-03T02:31:06.364Z,99.99
2016-12-03T02:32:06.241Z,99.99
2016-12-03T02:33:06.337Z,99.99
2016-12-03T02:37:33.805Z,99.99
2016-12-03T02:38:33.718Z,99.99
2016-12-03T02:39:34.487Z,99.99
2016-12-03T02:40:33.692Z,99.99
2016-12-03T02:41:33.807Z,99.99
2016-12-03T02:42:33.699Z,99.99
2016-12-03T02:43:33.802Z,99.99
2016-12-03T02:44:33.776Z,99.99
2016-12-03T02:45:33.758Z,99.99
2016-12-03T02:46:33.762Z,99.99
2016-12-03T02:47:34.723Z,99.99
2016-12-03T02:48:33.712Z,99.99
2016-12-03T02:49:33.853Z,99.99
2016-12-03T02:50:33.807Z,99.99
2016-12-03T02:51:33.794Z,99.99
2016-12-03T02:52:33.723Z,99.99
2016-12-03T02:53:33.789Z,99.99
2016-12-03T02:54:33.726Z,99.99
2016-12-03T02:55:34.009Z,99.99
2016-12-03T02:56:33.702Z,99.99
2016-12-03T02:57:33.845Z,99.99
2016-12-03T02:58:33.819Z,99.99
2016-12-03T02:59:33.964Z,99.99
2016-12-03T03:00:33.753Z,99.99
2016-12-03T03:01:33.781Z,99.99
2016-12-03T03:02:33.754Z,99.99
2016-12-03T03:03:33.774Z,99.99
2016-12-03T03:04:33.890Z,99.99
2016-12-03T03:05:33.843Z,99.99
2016-12-03T03:06:33.857Z,99.99
2016-12-03T03:07:33.860Z,99.99
2016-12-03T03:08:33.735Z,99.99
2016-12-03T03:09:33.822Z,99.99
2016-12-03T03:10:33.849Z,99.99
2016-12-03T03:11:33.757Z,99.99
2016-12-03T03:12:33.788Z,99.99
2016-12-03T03:13:33.823Z,99.99
2016-12-03T03:14:33.809Z,99.99
2016-12-03T03:15:33.802Z,99.99
2016-12-03T03:16:33.761Z,99.99
2016-12-03T03:17:33.754Z,99.99
2016-12-03T03:18:33.748Z,99.99
2016-12-03T03:19:33.876Z,99.99
2016-12-03T03:20:33.730Z,99.99
2016-12-03T03:21:33.822Z,99.99
2016-12-03T03:22:33.842Z,99.99
2016-12-03T03:23:33.958Z,99.99
2016-12-03T03:24:33.843Z,99.99
2016-12-03T03:25:33.725Z,99.99
2016-12-03T03:26:33.781Z,99.99
2016-12-03T03:27:34.001Z,99.95
2016-12-03T03:28:33.833Z,99.99
2016-12-03T03:29:33.825Z,99.99
2016-12-03T03:30:33.842Z,99.99
2016-12-03T03:31:33.831Z,99.99
2016-12-03T03:32:33.879Z,99.85
2016-12-03T03:33:33.772Z,99.99
2016-12-03T03:34:33.753Z,99.66
2016-12-03T03:35:33.903Z,99.95
2016-12-03T03:36:33.828Z,99.76
2016-12-03T03:37:34.044Z,99.95
2016-12-03T03:42:03.667Z,99.99
2016-12-03T03:43:03.719Z,99.99
2016-12-03T03:44:03.562Z,99.99
2016-12-03T03:45:03.745Z,99.99
2016-12-03T03:46:03.681Z,99.99
2016-12-03T03:47:03.598Z,99.99
2016-12-03T03:48:03.691Z,99.99
2016-12-03T03:49:03.741Z,99.99
2016-12-03T03:50:03.600Z,99.99
2016-12-03T03:51:03.562Z,99.99
2016-12-03T03:52:03.610Z,99.99
2016-12-03T03:53:03.805Z,99.99
2016-12-03T03:54:03.620Z,99.99
2016-12-03T03:55:03.655Z,99.99
2016-12-03T03:56:03.587Z,99.99
2016-12-03T03:57:03.752Z,99.99
2016-12-03T03:58:03.678Z,99.99
2016-12-03T03:59:03.709Z,99.99
2016-12-03T04:00:03.589Z,99.99
2016-12-03T04:01:03.655Z,99.99
2016-12-03T04:02:03.677Z,99.99
2016-12-03T04:03:03.701Z,99.99
2016-12-03T04:04:03.632Z,99.76
2016-12-03T04:05:03.771Z,99.85
2016-12-03T04:06:03.647Z,99.47
2016-12-03T04:07:03.620Z,99.57
2016-12-03T04:08:03.597Z,99.95
2016-12-03T04:09:03.664Z,99.76
2016-12-03T04:10:03.588Z,99.38
2016-12-03T04:11:03.719Z,99.47
2016-12-03T04:12:03.647Z,99.19
2016-12-03T04:13:03.676Z,99.33
2016-12-03T04:14:03.676Z,99.38
2016-12-03T04:15:03.808Z,99.28
2016-12-03T04:16:03.648Z,99.57
2016-12-03T04:17:03.687Z,99.99
2016-12-03T04:18:03.655Z,99.66
2016-12-03T04:19:03.690Z,99.99
2016-12-03T04:20:03.681Z,99.57
2016-12-03T04:21:03.657Z,99.76
2016-12-03T04:22:03.618Z,99.66
2016-12-03T04:23:03.723Z,99.47
2016-12-03T04:24:03.751Z,99.47
2016-12-03T04:25:03.923Z,99.19
2016-12-03T04:26:03.685Z,99.57
2016-12-03T04:27:03.730Z,99.19
2016-12-03T04:28:03.783Z,99.66
2016-12-03T04:29:03.619Z,99.57
2016-12-03T04:30:03.714Z,99.47
2016-12-03T04:31:03.848Z,99.47
2016-12-03T04:32:03.571Z,98.81
2016-12-03T04:33:03.880Z,98.24
2016-12-03T04:34:03.723Z,99.19
2016-12-03T04:35:03.763Z,98.52
2016-12-03T04:36:04.128Z,99
2016-12-03T04:37:03.687Z,98.05
2016-12-03T04:38:03.720Z,98.24
2016-12-03T04:39:03.698Z,98.38
2016-12-03T04:40:03.677Z,98.95
2016-12-03T04:41:03.809Z,98.28
2016-12-03T04:42:03.677Z,98.38
2016-12-03T04:43:03.775Z,98.76
2016-12-03T04:44:03.797Z,98.76
2016-12-03T04:45:03.705Z,99.23
2016-12-03T04:46:03.738Z,98.81
2016-12-03T04:47:03.839Z,98.66
2016-12-03T04:48:03.649Z,98.71
2016-12-03T04:49:03.854Z,98.28
2016-12-03T04:50:03.777Z,98.66
2016-12-03T04:51:03.663Z,98.1
2016-12-03T04:52:03.644Z,98.38
2016-12-03T04:53:03.780Z,98.1
2016-12-03T04:54:03.606Z,98.38
2016-12-03T04:55:03.687Z,98.66
2016-12-03T04:56:04.386Z,98.66
2016-12-03T04:57:03.789Z,98.66
2016-12-03T04:58:03.697Z,98.1
2016-12-03T04:59:03.815Z,98.28
2016-12-03T05:00:03.655Z,98.47
2016-12-03T05:01:03.652Z,98.85
2016-12-03T05:02:03.671Z,98.66
2016-12-03T05:03:03.835Z,98.47
2016-12-03T05:04:03.636Z,98.76
2016-12-03T05:05:03.683Z,98.66
2016-12-03T05:06:03.658Z,98.85
2016-12-03T05:07:03.782Z,98.76
2016-12-03T05:08:03.666Z,98.76
2016-12-03T05:09:03.776Z,98.19
2016-12-03T05:10:03.627Z,97.63
2016-12-03T05:11:03.858Z,97.81
2016-12-03T05:12:03.737Z,97.81
2016-12-03T05:13:03.738Z,98.57
2016-12-03T05:14:03.751Z,98.1
2016-12-03T05:15:03.666Z,98.28
2016-12-03T05:16:04.861Z,98
2016-12-03T05:17:03.906Z,98.76
2016-12-03T05:18:03.723Z,99.04
2016-12-03T05:19:03.785Z,98.95
2016-12-03T05:20:03.696Z,99.14
2016-12-03T05:21:03.795Z,98.66
2016-12-03T05:22:03.675Z,98.38
2016-12-03T05:23:03.867Z,97.91
2016-12-03T05:24:03.661Z,98.1
2016-12-03T05:25:03.780Z,97.91
2016-12-03T05:26:03.711Z,97.63
2016-12-03T05:27:03.698Z,97.72
2016-12-03T05:28:03.792Z,97.91
2016-12-03T05:29:03.833Z,98
2016-12-03T05:30:03.794Z,98.1
2016-12-03T05:31:03.753Z,97.72
2016-12-03T05:32:03.683Z,98.1
2016-12-03T05:33:03.803Z,98
2016-12-03T05:34:03.743Z,97.63
2016-12-03T05:35:03.768Z,98.47
2016-12-03T05:36:03.767Z,98.76
2016-12-03T05:37:03.792Z,98.76
2016-12-03T05:38:03.844Z,98.66
2016-12-03T05:39:03.745Z,99.33
2016-12-03T05:40:05.218Z,99.33
2016-12-03T05:41:03.732Z,98.66
2016-12-03T05:42:03.725Z,98.66
2016-12-03T05:43:03.888Z,98.47
2016-12-03T05:44:03.735Z,98.66
2016-12-03T05:45:03.727Z,98.38
2016-12-03T05:46:03.720Z,98.38
2016-12-03T05:47:03.867Z,98
2016-12-03T05:48:03.766Z,98
2016-12-03T05:49:03.728Z,97.91
2016-12-03T05:50:03.697Z,97.34
2016-12-03T05:51:03.906Z,97.63
2016-12-03T05:52:03.711Z,97.81
2016-12-03T05:53:03.836Z,97.81
2016-12-03T05:54:03.828Z,97.81
2016-12-03T05:55:03.896Z,98.1
2016-12-03T05:56:04.018Z,97.63
2016-12-03T05:57:03.883Z,97.91
2016-12-03T05:58:03.990Z,98.19
2016-12-03T05:59:04.582Z,98.19
2016-12-03T06:00:04.334Z,98.47
2016-12-03T06:01:03.905Z,98.85
2016-12-03T06:02:03.738Z,98.95
2016-12-03T06:03:03.913Z,99.14
2016-12-03T06:04:03.779Z,98.95
2016-12-03T06:05:03.851Z,99.23
2016-12-03T06:06:03.915Z,99.71
2016-12-03T06:07:03.865Z,99.33
2016-12-03T06:08:03.874Z,99.52
2016-12-03T06:09:03.792Z,99.42
2016-12-03T06:10:03.802Z,99.42
2016-12-03T06:11:03.958Z,99.52
2016-12-03T06:12:03.822Z,99.33
2016-12-03T06:13:04.008Z,99.52
2016-12-03T06:14:03.826Z,99.71
2016-12-03T06:15:03.827Z,99.14
2016-12-03T06:16:03.798Z,99.23
2016-12-03T06:17:03.758Z,99.33
2016-12-03T06:18:03.815Z,99.14
2016-12-03T06:19:03.902Z,98.85
2016-12-03T06:20:03.835Z,98.66
2016-12-03T06:21:03.789Z,98
2016-12-03T06:22:03.854Z,98.1
2016-12-03T06:23:03.979Z,97.91
2016-12-03T06:24:03.819Z,98.28
2016-12-03T06:25:03.957Z,98.66
2016-12-03T06:26:03.776Z,98.66
2016-12-03T06:27:03.837Z,98.19
2016-12-03T06:28:03.809Z,98.95
2016-12-03T06:29:03.927Z,98.47
2016-12-03T06:30:03.787Z,97.72
2016-12-03T06:31:03.798Z,98.38
2016-12-03T06:32:03.887Z,98.28
2016-12-03T06:33:03.960Z,99.14
2016-12-03T06:34:03.867Z,98.95
2016-12-03T06:35:04.008Z,98.28
2016-12-03T06:36:03.930Z,98.28
2016-12-03T06:37:04.018Z,98.95
2016-12-03T06:38:03.929Z,98.76
2016-12-03T06:39:03.867Z,98.47
2016-12-03T06:40:03.825Z,99.71
2016-12-03T06:41:03.947Z,99.61
2016-12-03T06:42:03.804Z,99.04
2016-12-03T06:43:03.889Z,98.76
2016-12-03T06:44:03.857Z,98.28
2016-12-03T06:45:03.817Z,98.19
2016-12-03T06:46:03.848Z,98.19
2016-12-03T06:47:04.011Z,97.81
2016-12-03T06:48:03.846Z,99.14
2016-12-03T06:49:03.873Z,98.66
2016-12-03T06:50:03.820Z,98.95
2016-12-03T06:51:03.812Z,98.57
2016-12-03T06:52:03.931Z,99.04
2016-12-03T06:53:03.894Z,98.57
2016-12-03T06:54:03.869Z,98.1
2016-12-03T06:55:03.994Z,98.38
2016-12-03T06:56:03.879Z,98.85
2016-12-03T06:57:03.912Z,98.76
2016-12-03T06:58:03.981Z,98.95
2016-12-03T06:59:03.846Z,98.66
2016-12-03T07:00:03.927Z,98.76
2016-12-03T07:01:03.957Z,98.76
2016-12-03T07:02:03.965Z,98.95
2016-12-03T07:03:03.842Z,98.43
2016-12-03T07:04:03.912Z,98.57
2016-12-03T07:05:03.890Z,99.14
2016-12-03T07:06:03.982Z,99.14
2016-12-03T07:07:04.442Z,98.76
2016-12-03T07:08:04.639Z,98.71
2016-12-03T07:09:05.412Z,98.95
2016-12-03T07:10:04.064Z,99.14
2016-12-03T07:11:04.012Z,98.9
2016-12-03T07:12:04.267Z,98.43
2016-12-03T07:13:04.121Z,97.96
2016-12-03T07:14:04.414Z,98.14
2016-12-03T07:15:04.231Z,98.95
2016-12-03T07:16:04.299Z,98.85
2016-12-03T07:17:04.160Z,98.66
2016-12-03T07:18:04.691Z,98.76
2016-12-03T07:19:04.199Z,98.76
2016-12-03T07:20:04.228Z,99.8
2016-12-03T07:21:04.194Z,99.33
2016-12-03T07:22:04.363Z,99.8
2016-12-03T07:23:04.633Z,99.89
2016-12-03T07:24:04.248Z,99.61
2016-12-03T07:25:04.159Z,99.71
2016-12-03T07:26:04.339Z,99.99
2016-12-03T07:27:04.306Z,99.99
2016-12-03T07:28:04.168Z,99.99
2016-12-03T07:29:04.185Z,99.99
2016-12-03T07:30:04.259Z,99.99
2016-12-03T07:31:04.001Z,99.99
2016-12-03T07:32:04.214Z,99.99
2016-12-03T07:33:04.481Z,99.42
2016-12-03T07:34:04.903Z,99.52
2016-12-03T07:35:04.375Z,99.8
2016-12-03T07:36:04.292Z,99.42
2016-12-03T07:37:04.636Z,99.61
2016-12-03T07:38:04.544Z,99.99
2016-12-03T07:39:04.231Z,99.99
2016-12-03T07:40:04.056Z,99.99
2016-12-03T07:41:04.103Z,99.99
2016-12-03T07:42:04.266Z,99.33
2016-12-03T07:43:04.307Z,99.33
2016-12-03T07:44:04.094Z,99.89
2016-12-03T07:45:04.169Z,99.42
2016-12-03T07:46:04.565Z,99.71
2016-12-03T07:47:04.315Z,99.23
2016-12-03T07:48:04.348Z,99.14
2016-12-03T07:49:04.129Z,98.66
2016-12-03T07:50:04.324Z,98.38
2016-12-03T07:51:06.971Z,98.47
2016-12-03T07:52:07.643Z,98.76
2016-12-03T07:53:19.681Z,99.04
2016-12-03T07:54:33.194Z,98.76
2016-12-03T07:55:21.401Z,98.1
2016-12-03T07:56:35.356Z,98.66
2016-12-03T07:57:20.177Z,97.91
2016-12-03T07:58:21.910Z,97.72
2016-12-03T07:59:25.598Z,98.1
2016-12-03T08:00:27.640Z,98.1
2016-12-03T08:01:20.041Z,98.85
2016-12-03T08:02:24.357Z,98.19
2016-12-03T08:03:24.791Z,97.91
2016-12-03T08:04:28.587Z,97.53
2016-12-03T08:05:31.144Z,98
2016-12-03T08:06:34.466Z,97.63
2016-12-03T08:07:25.653Z,97.81
2016-12-03T08:08:29.743Z,97.81
2016-12-03T08:09:36.577Z,97.91
2016-12-03T08:10:53.339Z,97.25
2016-12-03T08:11:50.007Z,97.72
2016-12-03T08:13:02.188Z,98.1
2016-12-03T08:14:19.230Z,97.15
2016-12-03T08:15:34.170Z,96.68
2016-12-03T08:16:53.150Z,97.06
2016-12-03T08:18:30.329Z,97.15
2016-12-03T08:20:06.662Z,96.49
2016-12-03T08:21:31.733Z,96.68
2016-12-03T08:22:39.177Z,96.78
2016-12-03T08:23:46.305Z,97.25
2016-12-03T08:25:08.994Z,97.44
2016-12-03T08:26:16.488Z,97.53
2016-12-03T08:27:30.028Z,97.25
2016-12-03T08:28:43.653Z,97.06
2016-12-03T08:30:05.646Z,97.72
2016-12-03T08:31:40.839Z,97.72
2016-12-03T08:33:00.082Z,98
2016-12-03T08:34:39.877Z,97.53
2016-12-03T08:36:44.321Z,97.53
2016-12-03T08:38:33.506Z,97.91
2016-12-03T08:39:41.879Z,97.63
2016-12-03T08:41:09.752Z,97.49
2016-12-03T08:42:49.156Z,97.77
2016-12-03T08:44:41.808Z,97.01
2016-12-03T08:46:27.139Z,97.49
2016-12-03T08:48:22.726Z,97.67
2016-12-03T08:49:56.379Z,97.67
2016-12-03T08:51:39.241Z,97.39
2016-12-03T08:53:07.396Z,97.77
2016-12-03T08:54:53.074Z,97.01
2016-12-03T08:56:37.607Z,96.83
2016-12-03T08:58:19.421Z,96.92
2016-12-03T08:59:52.413Z,96.45
2016-12-03T09:02:01.432Z,96.26
2016-12-03T09:04:12.300Z,96.73
2016-12-03T09:05:33.871Z,96.92
2016-12-03T09:06:54.829Z,95.31
2016-12-03T09:08:19.671Z,95.45
2016-12-03T09:09:50.852Z,95.93
2016-12-03T09:11:30.813Z,95.93
2016-12-03T09:13:09.386Z,95.26
2016-12-03T09:14:36.004Z,94.89
2016-12-03T09:16:13.167Z,94.32
2016-12-03T09:17:37.387Z,94.04
2016-12-03T09:19:12.758Z,94.42
2016-12-03T09:20:48.374Z,93.94
2016-12-03T09:22:00.203Z,93.42
2016-12-03T09:23:33.104Z,93.51
2016-12-03T09:25:09.697Z,94.08
2016-12-03T09:26:41.939Z,93.42
2016-12-03T09:27:52.886Z,93.23
2016-12-03T09:29:10.675Z,93.13
2016-12-03T09:30:13.833Z,92.85
2016-12-03T09:31:20.106Z,93.23
2016-12-03T09:32:15.040Z,92
2016-12-03T09:33:05.964Z,91.72
2016-12-03T09:34:05.406Z,91.62
2016-12-03T09:35:07.401Z,90.72
2016-12-03T09:36:06.889Z,90.72
2016-12-03T09:37:05.398Z,90.77
2016-12-03T09:38:05.083Z,90.77
2016-12-03T09:39:05.374Z,90.67
2016-12-03T09:40:05.040Z,90.34
2016-12-03T09:41:05.304Z,91.29
2016-12-03T09:42:06.489Z,91.29
2016-12-03T09:43:06.885Z,90.34
2016-12-03T09:44:05.578Z,90.25
2016-12-03T09:45:07.078Z,91
2016-12-03T09:46:05.403Z,89.77
2016-12-03T09:47:05.454Z,89.77
2016-12-03T09:48:06.950Z,89.77
2016-12-03T09:49:05.593Z,89.11
2016-12-03T09:50:05.069Z,90.15
2016-12-03T09:51:04.646Z,90.62
2016-12-03T09:52:06.284Z,90.72
2016-12-03T09:53:05.835Z,89.2
2016-12-03T09:54:05.895Z,88.21
2016-12-03T09:55:05.931Z,88.17
2016-12-03T09:56:07.411Z,88.54
2016-12-03T09:57:04.539Z,88.96
2016-12-03T09:58:06.568Z,88.73
2016-12-03T09:59:07.217Z,88.07
2016-12-03T10:00:06.626Z,87.64
2016-12-03T10:01:05.331Z,87.64
2016-12-03T10:02:06.699Z,87.73
2016-12-03T10:03:07.308Z,88.3
2016-12-03T10:04:04.872Z,88.87
2016-12-03T10:05:04.872Z,89.06
2016-12-03T10:06:07.306Z,88.59
2016-12-03T10:07:05.102Z,87.26
2016-12-03T10:08:16.837Z,87.07
2016-12-03T10:09:06.634Z,85.74
2016-12-03T10:10:06.892Z,87.83
2016-12-03T10:11:05.875Z,87.73
2016-12-03T10:12:05.138Z,86.79
2016-12-03T10:13:05.465Z,86.88
2016-12-03T10:14:05.843Z,87.35
2016-12-03T10:15:05.789Z,85.5
2016-12-03T10:16:05.587Z,84.84
2016-12-03T10:17:05.309Z,83.98
2016-12-03T10:18:11.064Z,85.22
2016-12-03T10:19:05.227Z,85.36
2016-12-03T10:23:41.167Z,84.61
2016-12-03T10:24:41.243Z,85.03
2016-12-03T10:25:40.843Z,85.5
2016-12-03T10:26:40.768Z,85.03
2016-12-03T10:27:40.798Z,85.78
2016-12-03T10:28:40.726Z,85.03
2016-12-03T10:29:39.544Z,84.42
2016-12-03T10:30:39.988Z,84.51
2016-12-03T10:31:41.039Z,84.94
2016-12-03T10:32:44.006Z,84.17
2016-12-03T10:33:41.076Z,84.94
2016-12-03T10:34:41.043Z,85.03
2016-12-03T10:35:40.679Z,84.17
2016-12-03T10:36:41.113Z,84.17
2016-12-03T10:37:40.650Z,84.36
2016-12-03T10:38:40.973Z,84.17
2016-12-03T10:39:40.571Z,84.46
2016-12-03T10:40:40.713Z,83.8
2016-12-03T10:41:40.063Z,83.8
2016-12-03T10:42:40.175Z,84.17
2016-12-03T10:43:40.299Z,83.98
2016-12-03T10:44:41.210Z,83.51
2016-12-03T10:45:45.206Z,83.32
2016-12-03T10:46:40.959Z,83.04
2016-12-03T10:47:40.559Z,82.75
2016-12-03T10:48:39.541Z,81.75
2016-12-03T10:49:39.938Z,80.8
2016-12-03T10:50:41.066Z,80.04
2016-12-03T10:51:41.101Z,80.24
2016-12-03T10:52:42.579Z,79.85
2016-12-03T10:53:40.855Z,79.28
2016-12-03T10:54:40.112Z,80.04
2016-12-03T10:55:39.560Z,81.09
2016-12-03T10:56:39.904Z,81.37
2016-12-03T10:57:40.014Z,82.13
2016-12-03T10:58:40.125Z,81.99
2016-12-03T10:59:40.728Z,82.47
2016-12-03T11:00:45.198Z,82.56
2016-12-03T11:01:43.125Z,83.61
2016-12-03T11:02:43.198Z,83.42
2016-12-03T11:03:40.981Z,84.17
2016-12-03T11:04:38.650Z,84.17
2016-12-03T11:05:38.734Z,83.51
2016-12-03T11:06:39.185Z,84.84
2016-12-03T11:07:38.997Z,85.22
2016-12-03T11:08:38.941Z,84.65
2016-12-03T11:09:39.154Z,84.46
2016-12-03T11:10:38.695Z,84.27
2016-12-03T11:11:38.772Z,83.61
2016-12-03T11:12:38.651Z,83.32
2016-12-03T11:13:39.141Z,82.66
2016-12-03T11:14:39.257Z,82.94
2016-12-03T11:15:38.633Z,82.28
2016-12-03T11:16:38.692Z,82.51
2016-12-03T11:17:38.717Z,82.37
2016-12-03T11:18:38.764Z,83.89
2016-12-03T11:19:38.563Z,83.51
2016-12-03T11:20:38.801Z,84.17
2016-12-03T11:21:39.026Z,84.94
2016-12-03T11:22:38.747Z,83.94
2016-12-03T11:23:38.920Z,82.6
2016-12-03T11:24:39.131Z,82.42
2016-12-03T11:25:39.457Z,82.79
2016-12-03T11:26:38.904Z,82.89
2016-12-03T11:27:38.919Z,82.56
2016-12-03T11:28:38.948Z,82.75
2016-12-03T11:29:38.721Z,83.98
2016-12-03T11:30:38.908Z,82.98
2016-12-03T11:31:38.787Z,82.51
2016-12-03T11:32:38.936Z,83.08
2016-12-03T11:33:38.865Z,83.08
2016-12-03T11:34:39.142Z,82.6
2016-12-03T11:35:39.150Z,81.37
2016-12-03T11:36:39.385Z,81.18
2016-12-03T11:37:38.866Z,81.56
2016-12-03T11:38:38.956Z,81.94
2016-12-03T11:39:39.340Z,81.27
2016-12-03T11:40:39.072Z,81.09
2016-12-03T11:41:39.360Z,81.37
2016-12-03T11:42:39.313Z,80.9
2016-12-03T11:43:39.471Z,81.66
2016-12-03T11:44:39.329Z,82.04
2016-12-03T11:45:41.595Z,81.09
2016-12-03T11:46:39.490Z,81.66
2016-12-03T11:47:39.241Z,81.56
2016-12-03T11:48:39.360Z,80.33
2016-12-03T11:49:39.318Z,80.33
2016-12-03T11:50:39.068Z,80.9
2016-12-03T11:51:39.037Z,81.09
2016-12-03T11:52:39.183Z,81.09
2016-12-03T11:53:39.263Z,81.47
2016-12-03T11:54:39.541Z,81.94
2016-12-03T11:55:39.901Z,82.51
2016-12-03T11:56:39.381Z,82.32
2016-12-03T11:57:39.417Z,82.85
2016-12-03T11:58:41.978Z,82.85
2016-12-03T11:59:39.672Z,82.75
2016-12-03T12:00:40.277Z,83.32
2016-12-03T12:01:39.918Z,82.23
2016-12-03T12:02:39.490Z,82.7
2016-12-03T12:03:38.751Z,82.98
2016-12-03T12:04:38.935Z,82.56
2016-12-03T12:05:39.845Z,82.56
2016-12-03T12:06:39.047Z,82.37
2016-12-03T12:07:39.669Z,82.66
2016-12-03T12:08:39.442Z,82.56
2016-12-03T12:09:39.377Z,82.89
2016-12-03T12:10:39.166Z,83.13
2016-12-03T12:11:39.503Z,83.7
2016-12-03T12:12:39.363Z,83.13
2016-12-03T12:13:39.322Z,83.7
2016-12-03T12:14:39.358Z,83.32
2016-12-03T12:15:39.086Z,83.42
2016-12-03T12:16:39.263Z,84.36
2016-12-03T12:17:39.075Z,85.03
2016-12-03T12:18:39.434Z,85.78
2016-12-03T12:19:39.474Z,85.6
2016-12-03T12:20:39.420Z,85.6
2016-12-03T12:21:38.959Z,85.97
2016-12-03T12:22:38.789Z,85.31
2016-12-03T12:23:39.058Z,85.03
2016-12-03T12:24:39.724Z,83.98
2016-12-03T12:25:39.074Z,83.42
2016-12-03T12:26:38.676Z,82.79
2016-12-03T12:27:38.723Z,82.66
2016-12-03T12:28:39.033Z,81.75
2016-12-03T12:29:39.053Z,80.99
2016-12-03T12:30:39.311Z,80.24
2016-12-03T12:31:38.960Z,80.62
2016-12-03T12:32:39.369Z,80.71
2016-12-03T12:33:39.429Z,80.24
2016-12-03T12:34:39.407Z,80.24
2016-12-03T12:35:39.173Z,80.52
2016-12-03T12:36:39.432Z,80.27
2016-12-03T12:37:39.078Z,79.8
2016-12-03T12:38:39.404Z,80.56
2016-12-03T12:39:39.651Z,80.99
2016-12-03T12:40:39.528Z,80.56
2016-12-03T12:41:38.819Z,79.33
2016-12-03T12:42:39.569Z,79.8
2016-12-03T12:43:39.197Z,79.33
2016-12-03T12:44:39.359Z,79.04
2016-12-03T12:45:38.840Z,78.95
2016-12-03T12:46:38.904Z,78.51
2016-12-03T12:47:39.462Z,78.09
2016-12-03T12:48:39.250Z,78.19
2016-12-03T12:49:40.651Z,78.09
2016-12-03T12:50:39.513Z,77.71
2016-12-03T12:51:39.186Z,78.09
2016-12-03T12:52:39.532Z,77.81
2016-12-03T12:53:39.654Z,78.75
2016-12-03T12:54:39.255Z,79.23
2016-12-03T12:55:39.797Z,78.19
2016-12-03T12:56:40.291Z,78.56
2016-12-03T12:57:39.845Z,79.04
2016-12-03T12:58:39.542Z,79.61
2016-12-03T12:59:39.674Z,78.75
2016-12-03T13:00:40.051Z,78.19
2016-12-03T13:01:40.118Z,78.38
2016-12-03T13:02:39.927Z,78.09
2016-12-03T13:03:39.839Z,78
2016-12-03T13:04:39.557Z,78.66
2016-12-03T13:05:39.523Z,78.95
2016-12-03T13:06:39.595Z,79.14
2016-12-03T13:07:39.561Z,79.33
2016-12-03T13:08:39.732Z,81.27
2016-12-03T13:09:39.839Z,80.52
2016-12-03T13:10:39.401Z,80.9
2016-12-03T13:11:39.175Z,81.27
2016-12-03T13:12:38.995Z,82.32
2016-12-03T13:13:39.374Z,82.6
2016-12-03T13:14:39.398Z,82.7
2016-12-03T13:15:38.993Z,82.89
2016-12-03T13:16:39.497Z,82.6
2016-12-03T13:17:39.374Z,82.51
2016-12-03T13:18:39.454Z,83.04
2016-12-03T13:19:39.064Z,84.27
2016-12-03T13:20:39.008Z,84.27
2016-12-03T13:21:39.483Z,84.94
2016-12-03T13:22:39.109Z,85.69
2016-12-03T13:23:39.509Z,86.07
2016-12-03T13:24:39.042Z,86.26
2016-12-03T13:25:39.590Z,86.74
2016-12-03T13:26:39.695Z,87.02
2016-12-03T13:27:39.096Z,87.02
2016-12-03T13:28:39.856Z,86.93
2016-12-03T13:29:39.180Z,87.12
2016-12-03T13:30:39.487Z,86.93
2016-12-03T13:31:39.232Z,86.26
2016-12-03T13:32:39.525Z,86.26
2016-12-03T13:33:39.521Z,85.97
2016-12-03T13:34:39.327Z,85.69
2016-12-03T13:35:39.406Z,86.55
2016-12-03T13:36:39.780Z,86.45